Time;durP1;ratioP1;P1;durP2;ratioP2;P2;SDS_P1;SDS_P2;PMS_P1;PMS_P2;Temp;Humidity;BMP_temperature;BMP_pressure;BME280_temperature;BME280_humidity;BME280_pressure;Samples;Min_cycle;Max_cycle;Signal;HPM_P1;HPM_P2
2023/03/17 00:00:41;;;;;;;;;20.75;17.00;;;;;14.66;46.38;100185.25;5015468;28;47007;-73
2023/03/17 00:03:15;;;;;;;;;49.50;39.25;;;;;14.62;46.34;100187.06;5018749;28;45443;-76
2023/03/17 00:05:41;;;;;;;;;51.75;39.75;;;;;14.63;46.42;100190.63;5018402;28;45324;-73
2023/03/17 00:08:16;;;;;;;;;19.00;14.00;;;;;14.60;46.61;100204.97;5015399;28;45349;-73
2023/03/17 00:10:42;;;;;;;;;27.25;25.25;;;;;14.41;47.08;100177.13;5021458;28;45357;-77
2023/03/17 00:13:11;;;;;;;;;14.00;13.75;;;;;14.61;46.74;100200.50;5022282;28;45478;-73
2023/03/17 00:15:36;;;;;;;;;15.25;12.25;;;;;14.46;46.69;100174.47;5025074;28;45557;-72
2023/03/17 00:18:02;;;;;;;;;17.25;15.00;;;;;14.54;46.82;100208.50;5015693;28;45496;-74
2023/03/17 00:20:31;;;;;;;;;12.25;11.50;;;;;14.56;46.63;100212.09;5015233;28;45296;-74
2023/03/17 00:22:58;;;;;;;;;15.75;14.50;;;;;14.43;46.83;100194.16;5015427;28;45424;-73
2023/03/17 00:25:27;;;;;;;;;26.50;22.50;;;;;14.56;47.06;100224.63;5015197;28;45298;-74
2023/03/17 00:27:54;;;;;;;;;20.50;20.25;;;;;14.53;47.20;100221.94;5015713;28;45411;-74
2023/03/17 00:30:21;;;;;;;;;17.50;15.50;;;;;14.56;46.74;100216.56;5019349;28;46173;-73
2023/03/17 00:32:49;;;;;;;;;20.00;19.00;;;;;14.50;47.22;100214.78;5018327;28;45465;-77
2023/03/17 00:35:20;;;;;;;;;21.25;20.00;;;;;14.49;46.85;100209.41;5015939;28;45372;-75
2023/03/17 00:37:47;;;;;;;;;20.25;18.25;;;;;14.46;46.87;100212.09;5017067;28;45568;-75
2023/03/17 00:40:21;;;;;;;;;16.00;15.75;;;;;14.43;47.42;100209.38;5015436;28;45320;-77
2023/03/17 00:42:47;;;;;;;;;15.00;13.50;;;;;14.43;47.46;100210.28;5014099;28;45846;-74
2023/03/17 00:45:13;;;;;;;;;11.50;8.50;;;;;14.47;47.02;100216.53;5016982;28;45658;-75
2023/03/17 00:47:39;;;;;;;;;21.75;19.75;;;;;14.44;46.95;100219.25;5015455;28;45567;-73
2023/03/17 00:50:05;;;;;;;;;22.25;19.75;;;;;14.43;47.30;100226.41;5002896;28;46399;-71
2023/03/17 00:52:31;;;;;;;;;13.50;13.50;;;;;14.43;47.21;100215.66;5017274;28;45524;-74
2023/03/17 00:54:57;;;;;;;;;25.50;17.25;;;;;14.22;47.10;100178.88;5021528;28;46406;-76
2023/03/17 00:57:23;;;;;;;;;16.75;13.50;;;;;14.37;47.25;100197.75;5017918;28;45514;-75
2023/03/17 00:59:49;;;;;;;;;15.50;13.25;;;;;14.40;46.81;100210.25;5019811;28;46187;-75
2023/03/17 01:02:14;;;;;;;;;19.50;17.75;;;;;14.29;47.13;100191.44;5023437;28;45437;-73
2023/03/17 01:04:40;;;;;;;;;10.50;10.50;;;;;14.41;47.15;100203.13;5016512;28;45449;-73
2023/03/17 01:07:06;;;;;;;;;14.00;11.75;;;;;14.15;47.11;100160.97;5018062;28;45677;-76
2023/03/17 01:09:32;;;;;;;;;19.75;15.75;;;;;14.23;47.21;100193.22;5010532;28;45715;-74
2023/03/17 01:11:58;;;;;;;;;18.50;16.75;;;;;14.25;47.29;100192.31;5027983;28;45345;-73
2023/03/17 01:14:24;;;;;;;;;43.25;31.75;;;;;14.35;47.80;100210.28;5015108;28;45395;-74
2023/03/17 01:16:51;;;;;;;;;32.00;27.50;;;;;14.33;47.90;100212.03;5018370;28;45444;-76
2023/03/17 01:19:17;;;;;;;;;17.25;17.25;;;;;14.26;47.94;100210.25;5015576;28;45234;-74
2023/03/17 01:21:44;;;;;;;;;24.25;21.50;;;;;14.15;48.04;100194.09;5013109;28;46367;-73
2023/03/17 01:24:10;;;;;;;;;10.50;9.25;;;;;14.11;47.61;100197.66;5023368;28;45342;-75
2023/03/17 01:26:36;;;;;;;;;13.25;13.00;;;;;14.18;48.08;100201.25;5022287;28;45646;-75
2023/03/17 01:29:02;;;;;;;;;19.25;13.75;;;;;14.23;47.53;100214.72;5013530;28;46423;-74
2023/03/17 01:31:27;;;;;;;;;17.75;14.00;;;;;14.18;48.20;100215.59;5014484;28;45304;-70
2023/03/17 01:33:52;;;;;;;;;13.00;11.25;;;;;14.21;48.00;100214.72;5015132;28;45384;-73
2023/03/17 01:36:19;;;;;;;;;14.00;11.50;;;;;14.18;48.25;100206.63;5015218;28;45563;-76
2023/03/17 01:38:46;;;;;;;;;12.00;11.75;;;;;14.04;48.34;100193.19;5016232;28;45565;-75
2023/03/17 01:41:12;;;;;;;;;16.00;13.00;;;;;14.05;48.00;100200.31;4994678;28;45975;-74
2023/03/17 01:43:37;;;;;;;;;14.75;11.00;;;;;14.07;48.23;100200.34;5015607;28;45417;-68
2023/03/17 01:46:19;;;;;;;;;14.25;11.75;;;;;14.09;48.05;100202.16;5015672;28;45403;-71
2023/03/17 01:48:57;;;;;;;;;15.25;10.00;;;;;14.07;48.61;100203.91;5014843;28;45583;-70
2023/03/17 01:51:46;;;;;;;;;15.25;13.25;;;;;14.06;48.42;100204.81;5016963;28;45558;-71
2023/03/17 01:54:33;;;;;;;;;15.75;13.25;;;;;13.99;48.74;100202.97;5012651;28;45396;-74
2023/03/17 01:57:08;;;;;;;;;10.25;10.25;;;;;13.99;48.27;100200.28;5011074;28;45543;-73
2023/03/17 01:59:38;;;;;;;;;16.00;12.50;;;;;13.99;48.65;100202.97;5028530;28;47560;-73
2023/03/17 02:02:10;;;;;;;;;13.75;12.25;;;;;14.02;48.43;100203.00;5017193;28;45612;-73
2023/03/17 02:04:38;;;;;;;;;12.75;11.75;;;;;13.93;48.85;100193.13;5018871;28;45409;-74
2023/03/17 02:07:04;;;;;;;;;12.50;11.50;;;;;13.93;48.94;100202.97;5016404;28;45264;-73
2023/03/17 02:09:31;;;;;;;;;14.50;11.25;;;;;13.88;49.10;100188.66;5018053;28;45438;-73
2023/03/17 02:12:00;;;;;;;;;10.75;9.00;;;;;13.95;48.39;100201.19;5015361;28;45489;-74
2023/03/17 02:14:26;;;;;;;;;12.75;8.75;;;;;13.93;48.37;100198.50;5017878;28;45474;-75
2023/03/17 02:16:51;;;;;;;;;13.50;10.75;;;;;13.94;48.19;100197.63;5025454;28;45502;-75
2023/03/17 02:19:17;;;;;;;;;12.25;10.50;;;;;13.97;48.63;100199.41;5013890;28;46289;-73
2023/03/17 02:21:46;;;;;;;;;11.00;9.00;;;;;13.98;48.06;100195.84;5014251;28;45447;-72
2023/03/17 02:24:20;;;;;;;;;12.75;12.75;;;;;14.00;48.58;100202.09;5013926;28;45381;-75
2023/03/17 02:26:48;;;;;;;;;16.75;13.75;;;;;13.96;48.19;100195.84;5015523;28;45535;-70
2023/03/17 02:29:14;;;;;;;;;12.25;11.75;;;;;14.02;48.17;100200.31;5012015;28;46173;-72
2023/03/17 02:31:40;;;;;;;;;14.50;12.50;;;;;13.97;48.52;100196.72;5013707;28;45611;-73
2023/03/17 02:34:06;;;;;;;;;14.75;11.25;;;;;13.97;48.73;100197.63;5013817;28;45607;-71
2023/03/17 02:36:31;;;;;;;;;15.00;13.50;;;;;13.98;48.25;100190.47;5014403;28;45550;-74
2023/03/17 02:38:57;;;;;;;;;13.75;9.50;;;;;13.99;48.44;100186.88;5022057;28;45483;-72
2023/03/17 02:41:22;;;;;;;;;12.75;9.75;;;;;14.00;48.10;100186.88;5015980;28;45462;-71
2023/03/17 02:43:47;;;;;;;;;14.75;13.50;;;;;14.00;48.12;100189.56;5017280;28;45574;-71
2023/03/17 02:46:13;;;;;;;;;15.00;13.00;;;;;13.97;48.07;100186.91;5017551;28;45320;-72
2023/03/17 02:48:39;;;;;;;;;10.50;9.75;;;;;13.98;47.88;100183.28;5017217;28;46052;-72
2023/03/17 02:51:05;;;;;;;;;12.00;12.00;;;;;14.04;48.15;100189.56;5018872;28;45300;-72
2023/03/17 02:53:31;;;;;;;;;11.50;8.75;;;;;13.97;48.19;100180.59;5016927;28;45408;-73
2023/03/17 02:55:56;;;;;;;;;12.75;12.00;;;;;13.87;48.39;100160.00;5018896;28;45545;-68
2023/03/17 02:58:22;;;;;;;;;10.50;10.50;;;;;14.01;48.18;100175.25;5018078;28;47048;-73
2023/03/17 03:00:48;;;;;;;;;11.75;11.25;;;;;13.99;48.19;100170.75;5018679;28;45388;-71
2023/03/17 03:03:14;;;;;;;;;8.25;8.25;;;;;14.04;48.23;100173.47;5022985;28;45450;-74
2023/03/17 03:05:40;;;;;;;;;11.00;10.00;;;;;14.01;47.62;100163.63;5017641;28;45403;-74
2023/03/17 03:08:05;;;;;;;;;11.25;9.50;;;;;13.93;47.92;100147.47;5027686;28;45431;-67
2023/03/17 03:10:31;;;;;;;;;15.25;11.00;;;;;14.02;47.85;100160.03;5016899;28;45513;-74
2023/03/17 03:12:56;;;;;;;;;12.00;8.25;;;;;13.99;47.80;100163.63;5018093;28;45314;-71
2023/03/17 03:15:22;;;;;;;;;12.75;11.00;;;;;13.96;48.05;100147.50;5017255;28;45517;-72
2023/03/17 03:17:47;;;;;;;;;8.25;7.25;;;;;13.89;47.99;100126.88;5026893;28;45503;-74
2023/03/17 03:20:13;;;;;;;;;10.75;10.00;;;;;13.99;47.79;100144.81;4998538;28;45508;-74
2023/03/17 03:22:39;;;;;;;;;3.75;3.00;;;;;13.87;48.00;100123.28;5015396;28;45431;-72
2023/03/17 03:25:06;;;;;;;;;8.50;8.50;;;;;14.01;47.86;100156.44;5017086;28;45408;-74
2023/03/17 03:27:31;;;;;;;;;16.50;15.00;;;;;13.94;48.09;100154.66;5016446;28;46255;-73
2023/03/17 03:29:57;;;;;;;;;14.00;11.50;;;;;13.92;48.38;100155.53;5017045;28;45536;-73
2023/03/17 03:32:22;;;;;;;;;12.50;10.00;;;;;13.87;47.56;100150.13;5017442;28;45613;-74
2023/03/17 03:34:48;;;;;;;;;13.50;11.75;;;;;13.75;47.84;100148.31;5017085;28;45429;-75
2023/03/17 03:37:13;;;;;;;;;8.00;6.25;;;;;13.72;47.94;100150.09;5016729;28;46428;-74
2023/03/17 03:39:38;;;;;;;;;10.50;9.50;;;;;13.70;47.90;100146.50;4998634;28;44820;-73
2023/03/17 03:42:04;;;;;;;;;7.75;7.75;;;;;13.69;48.36;100150.97;5016279;28;50722;-74
2023/03/17 03:44:29;;;;;;;;;8.00;8.00;;;;;13.71;48.37;100159.94;5017103;28;45369;-71
2023/03/17 03:46:55;;;;;;;;;13.00;10.25;;;;;13.67;48.33;100166.16;5016553;28;45717;-71
2023/03/17 03:49:21;;;;;;;;;11.00;9.00;;;;;13.64;48.51;100172.44;4992649;28;45528;-72
2023/03/17 03:51:46;;;;;;;;;9.25;8.25;;;;;13.63;48.25;100173.31;5015305;28;45482;-73
2023/03/17 03:54:12;;;;;;;;;12.50;8.00;;;;;13.63;48.33;100178.69;5007322;28;45455;-72
2023/03/17 03:56:37;;;;;;;;;10.25;8.75;;;;;13.63;48.78;100181.38;5031754;28;45521;-72
2023/03/17 03:59:02;;;;;;;;;10.00;8.25;;;;;13.53;48.39;100182.22;5029548;28;45422;-73
2023/03/17 04:01:28;;;;;;;;;11.25;7.75;;;;;13.52;48.71;100183.09;5021020;28;45933;-74
2023/03/17 04:03:53;;;;;;;;;7.25;7.00;;;;;13.44;49.00;100175.00;5015601;28;52099;-73
2023/03/17 04:06:18;;;;;;;;;15.50;10.50;;;;;13.52;49.05;100183.09;5015792;28;45317;-75
2023/03/17 04:08:44;;;;;;;;;9.25;8.25;;;;;13.39;48.85;100162.47;5015362;28;54317;-73
2023/03/17 04:11:10;;;;;;;;;9.75;9.75;;;;;13.48;49.17;100180.38;4998229;28;45373;-73
2023/03/17 04:13:35;;;;;;;;;13.50;10.50;;;;;13.47;49.23;100181.28;5016203;28;45460;-74
2023/03/17 04:16:00;;;;;;;;;8.50;7.00;;;;;13.47;49.22;100176.81;5015578;28;48413;-74
2023/03/17 04:18:26;;;;;;;;;13.00;10.00;;;;;13.45;49.38;100184.84;5015774;28;45440;-75
2023/03/17 04:20:52;;;;;;;;;9.00;9.00;;;;;13.37;48.75;100165.13;4998082;28;45486;-75
2023/03/17 04:23:17;;;;;;;;;7.75;7.25;;;;;13.49;50.09;100192.94;5025647;28;45558;-74
2023/03/17 04:25:43;;;;;;;;;11.50;9.75;;;;;13.50;48.87;100176.84;5016072;28;45624;-75
2023/03/17 04:28:09;;;;;;;;;11.75;7.50;;;;;13.51;49.34;100180.41;5015602;28;45457;-74
2023/03/17 04:30:34;;;;;;;;;9.50;9.00;;;;;13.56;49.24;100175.97;5017328;28;45392;-74
2023/03/17 04:32:59;;;;;;;;;6.25;6.25;;;;;13.58;48.99;100180.47;5018761;28;45548;-74
2023/03/17 04:35:26;;;;;;;;;9.75;9.75;;;;;13.58;49.53;100182.25;5015051;28;65079;-73
2023/03/17 04:37:51;;;;;;;;;11.50;11.00;;;;;13.46;49.77;100158.91;5016847;28;45459;-73
2023/03/17 04:40:18;;;;;;;;;10.00;8.75;;;;;13.56;49.51;100167.91;5015376;28;45369;-75
2023/03/17 04:42:43;;;;;;;;;9.25;8.00;;;;;13.44;48.48;100140.13;5016277;28;45669;-68
2023/03/17 04:45:10;;;;;;;;;11.25;7.25;;;;;13.61;49.66;100164.38;5015486;28;46372;-74
2023/03/17 04:47:36;;;;;;;;;8.25;8.25;;;;;13.64;49.29;100168.84;5010290;28;45476;-71
2023/03/17 04:50:02;;;;;;;;;9.25;8.25;;;;;13.60;48.96;100165.25;5003592;28;45380;-75
2023/03/17 04:52:28;;;;;;;;;11.50;10.50;;;;;13.66;49.39;100164.41;5019608;28;45313;-73
2023/03/17 04:54:53;;;;;;;;;9.00;9.00;;;;;13.64;48.99;100161.69;4998514;28;47091;-72
2023/03/17 04:57:18;;;;;;;;;8.75;7.25;;;;;13.59;49.45;100182.22;5020340;28;60143;-72
2023/03/17 04:59:44;;;;;;;;;9.50;9.50;;;;;13.52;48.98;100176.84;5026332;28;45495;-71
2023/03/17 05:02:09;;;;;;;;;11.00;8.50;;;;;13.59;49.16;100179.53;5013666;28;45615;-68
2023/03/17 05:04:35;;;;;;;;;9.75;9.00;;;;;13.29;48.70;100123.91;5014925;28;57375;-68
2023/03/17 05:07:00;;;;;;;;;10.75;10.00;;;;;13.47;49.20;100157.16;5014354;28;45519;-70
2023/03/17 05:09:27;;;;;;;;;10.50;8.25;;;;;13.54;49.36;100175.06;5015002;28;45744;-69
2023/03/17 05:11:53;;;;;;;;;9.25;8.25;;;;;13.57;49.25;100177.75;5019570;28;45355;-70
2023/03/17 05:14:18;;;;;;;;;11.75;9.00;;;;;13.51;49.37;100180.41;5014104;28;46507;-73
2023/03/17 05:16:46;;;;;;;;;10.00;10.00;;;;;13.42;49.90;100165.16;5024579;28;45284;-74
2023/03/17 05:19:11;;;;;;;;;9.50;8.00;;;;;13.38;49.85;100176.75;5018347;28;46702;-74
2023/03/17 05:21:38;;;;;;;;;7.25;7.25;;;;;13.26;49.80;100170.41;5024089;28;45529;-74
2023/03/17 05:24:04;;;;;;;;;9.00;7.00;;;;;13.40;49.96;100189.31;5022332;28;45580;-69
2023/03/17 05:26:29;;;;;;;;;11.25;7.50;;;;;13.36;49.61;100183.91;5022710;28;45622;-69
2023/03/17 05:28:54;;;;;;;;;12.50;9.00;;;;;13.37;49.48;100183.91;5024278;28;45421;-73
2023/03/17 05:31:19;;;;;;;;;12.75;6.50;;;;;13.39;49.57;100186.59;5016538;28;45284;-72
2023/03/17 05:33:45;;;;;;;;;6.25;5.75;;;;;13.26;50.18;100167.75;5032105;28;46054;-72
2023/03/17 05:36:12;;;;;;;;;4.50;4.50;;;;;13.44;49.69;100174.13;5021144;28;45360;-71
2023/03/17 05:38:37;;;;;;;;;9.00;8.00;;;;;13.45;50.13;100174.13;5023149;28;45341;-71
2023/03/17 05:41:02;;;;;;;;;15.00;6.75;;;;;13.44;49.40;100180.38;5020208;28;50494;-71
2023/03/17 05:43:28;;;;;;;;;4.75;4.50;;;;;13.48;49.29;100175.03;5023029;28;45391;-71
2023/03/17 05:45:54;;;;;;;;;7.75;7.75;;;;;13.45;49.32;100171.44;5021591;28;45214;-70
2023/03/17 05:48:19;;;;;;;;;8.00;6.50;;;;;13.19;50.42;100149.78;5004077;28;45414;-69
2023/03/17 05:50:45;;;;;;;;;10.75;8.50;;;;;13.36;49.58;100176.75;5022447;28;45646;-70
2023/03/17 05:53:10;;;;;;;;;8.00;8.00;;;;;13.36;49.95;100174.06;5032972;28;46088;-69
2023/03/17 05:55:36;;;;;;;;;7.00;6.25;;;;;13.35;49.67;100168.72;5017192;28;45397;-69
2023/03/17 05:58:03;;;;;;;;;11.25;5.50;;;;;13.28;49.76;100165.03;5018491;28;45558;-73
2023/03/17 06:00:29;;;;;;;;;8.50;7.00;;;;;13.22;49.86;100160.53;5016744;28;45513;-70
2023/03/17 06:02:54;;;;;;;;;10.75;8.25;;;;;13.39;50.63;100182.13;5022755;28;46119;-73
2023/03/17 06:05:20;;;;;;;;;12.00;9.00;;;;;13.43;50.13;100183.97;5018506;28;45376;-70
2023/03/17 06:07:45;;;;;;;;;8.50;8.50;;;;;13.43;50.08;100183.97;5014856;28;45824;-73
2023/03/17 06:10:11;;;;;;;;;5.50;5.50;;;;;13.41;50.57;100180.38;4998440;28;45463;-67
2023/03/17 06:12:36;;;;;;;;;11.25;8.75;;;;;13.29;50.80;100164.16;5016453;28;46262;-72
2023/03/17 06:15:02;;;;;;;;;9.50;8.75;;;;;13.38;49.87;100180.34;5014988;28;45470;-73
2023/03/17 06:17:28;;;;;;;;;12.00;10.25;;;;;13.41;50.62;100179.47;5018260;28;45633;-72
2023/03/17 06:19:53;;;;;;;;;10.75;9.50;;;;;13.31;50.65;100177.59;5018894;28;45501;-74
2023/03/17 06:22:18;;;;;;;;;8.50;6.75;;;;;13.34;50.63;100183.91;5015460;28;45955;-70
2023/03/17 06:24:44;;;;;;;;;8.75;7.50;;;;;13.34;50.95;100180.31;5019537;28;45561;-72
2023/03/17 06:27:10;;;;;;;;;9.00;7.25;;;;;13.38;50.28;100182.13;5017522;28;45341;-71
2023/03/17 06:29:36;;;;;;;;;11.00;9.00;;;;;13.33;50.62;100178.50;5022072;28;45562;-72
2023/03/17 06:32:02;;;;;;;;;11.75;10.50;;;;;13.45;50.04;100200.06;4998884;28;45418;-70
2023/03/17 06:34:28;;;;;;;;;13.50;9.25;;;;;13.33;50.78;100171.38;5018462;28;45429;-73
2023/03/17 06:36:53;;;;;;;;;11.00;10.00;;;;;13.46;50.84;100191.09;5022643;28;45843;-72
2023/03/17 06:39:19;;;;;;;;;8.75;7.00;;;;;13.44;50.32;100188.41;4999337;28;45527;-74
2023/03/17 06:41:44;;;;;;;;;7.50;6.25;;;;;13.43;50.18;100185.75;5022509;28;45482;-73
2023/03/17 06:44:09;;;;;;;;;7.50;6.00;;;;;13.50;50.94;100192.06;5016528;28;45424;-74
2023/03/17 06:46:35;;;;;;;;;9.50;8.25;;;;;13.53;50.69;100176.84;5028904;28;45419;-71
2023/03/17 06:49:02;;;;;;;;;8.75;6.25;;;;;13.43;50.94;100158.91;5017282;28;45463;-74
2023/03/17 06:51:28;;;;;;;;;7.25;7.25;;;;;13.50;50.66;100197.41;5017736;28;45707;-72
2023/03/17 06:53:54;;;;;;;;;12.00;9.25;;;;;13.43;50.70;100181.28;4994196;28;46080;-73
2023/03/17 06:56:20;;;;;;;;;9.25;6.00;;;;;13.48;50.54;100196.50;5025126;28;45425;-75
2023/03/17 06:58:45;;;;;;;;;12.50;10.50;;;;;13.41;51.26;100182.13;5026729;28;45488;-74
2023/03/17 07:01:13;;;;;;;;;12.50;9.25;;;;;13.50;50.83;100194.72;5006613;28;46621;-75
2023/03/17 07:03:39;;;;;;;;;12.25;11.00;;;;;13.40;50.59;100180.38;5004484;28;45407;-75
2023/03/17 07:06:04;;;;;;;;;9.25;8.25;;;;;13.41;50.21;100177.69;5024643;28;45355;-70
2023/03/17 07:08:30;;;;;;;;;13.25;12.75;;;;;13.58;50.65;100199.25;5015508;28;45486;-73
2023/03/17 07:10:56;;;;;;;;;9.00;8.00;;;;;13.62;50.42;100201.03;5016362;28;46405;-72
2023/03/17 07:13:23;;;;;;;;;12.50;10.50;;;;;13.47;50.90;100163.41;5015711;28;45599;-75
2023/03/17 07:15:49;;;;;;;;;12.50;10.50;;;;;13.60;50.70;100175.09;5014524;28;45554;-68
2023/03/17 07:18:15;;;;;;;;;10.00;8.50;;;;;13.70;50.24;100194.84;5026934;28;45535;-72
2023/03/17 07:20:41;;;;;;;;;8.00;8.00;;;;;13.69;50.37;100187.66;5016503;28;46735;-72
2023/03/17 07:23:13;;;;;;;;;8.25;8.25;;;;;13.69;50.36;100199.28;5016325;28;45400;-74
2023/03/17 07:25:42;;;;;;;;;11.25;9.75;;;;;13.62;49.97;100194.78;5016795;28;45879;-72
2023/03/17 07:28:10;;;;;;;;;13.00;9.75;;;;;13.56;50.12;100184.94;5016872;28;45469;-74
2023/03/17 07:30:36;;;;;;;;;12.75;8.50;;;;;13.76;49.89;100217.22;5016896;28;45526;-70
2023/03/17 07:33:02;;;;;;;;;11.25;7.00;;;;;13.74;49.56;100205.59;5016423;28;45574;-73
2023/03/17 07:35:29;;;;;;;;;9.75;8.00;;;;;13.85;49.28;100213.69;5017153;28;45422;-74
2023/03/17 07:37:55;;;;;;;;;7.00;7.00;;;;;13.66;49.24;100171.53;5019842;28;45514;-73
2023/03/17 07:40:20;;;;;;;;;9.75;9.75;;;;;14.03;48.79;100222.72;5015359;28;47912;-76
2023/03/17 07:42:46;;;;;;;;;9.75;9.00;;;;;14.08;48.70;100220.94;5016524;28;45377;-74
2023/03/17 07:45:12;;;;;;;;;10.50;7.25;;;;;14.06;48.51;100202.13;5020815;28;45494;-68
2023/03/17 07:47:38;;;;;;;;;9.50;8.25;;;;;14.18;48.05;100207.53;5017991;28;45575;-73
2023/03/17 07:50:04;;;;;;;;;9.50;9.00;;;;;14.30;48.32;100217.41;5038319;28;45285;-75
2023/03/17 07:52:29;;;;;;;;;9.50;8.75;;;;;14.22;47.76;100205.75;5006193;28;45557;-74
2023/03/17 07:54:57;;;;;;;;;12.75;8.00;;;;;14.31;47.83;100219.22;5031854;28;45602;-72
2023/03/17 07:57:22;;;;;;;;;7.75;7.75;;;;;14.37;48.01;100221.03;5019937;28;45290;-73
2023/03/17 07:59:48;;;;;;;;;8.00;7.00;;;;;14.28;47.34;100194.13;5035177;28;45447;-70
2023/03/17 08:02:15;;;;;;;;;10.00;8.50;;;;;14.42;47.55;100227.31;5030007;28;45213;-75
2023/03/17 08:04:41;;;;;;;;;11.00;9.75;;;;;14.41;47.61;100216.56;5030705;28;45282;-71
2023/03/17 08:07:06;;;;;;;;;6.75;6.75;;;;;14.54;46.95;100229.13;5022516;28;45406;-75
2023/03/17 08:09:32;;;;;;;;;11.50;8.50;;;;;14.49;46.63;100221.03;5027972;28;45981;-76
2023/03/17 08:11:57;;;;;;;;;6.25;6.25;;;;;14.63;46.17;100236.34;4980191;28;45827;-77
2023/03/17 08:14:22;;;;;;;;;14.75;12.00;;;;;14.66;46.06;100233.66;5022441;28;45316;-78
2023/03/17 08:16:48;;;;;;;;;11.25;9.75;;;;;14.66;45.64;100231.84;5024296;28;45387;-75
2023/03/17 08:19:13;;;;;;;;;10.25;7.00;;;;;14.66;45.80;100234.53;5025799;28;45498;-77
2023/03/17 08:21:38;;;;;;;;;9.50;8.75;;;;;14.67;45.68;100230.09;5026557;28;45206;-76
2023/03/17 08:24:04;;;;;;;;;9.25;7.25;;;;;14.70;45.74;100225.59;5015257;28;45477;-77
2023/03/17 08:26:31;;;;;;;;;8.33;5.00;;;;;14.69;45.28;100201.41;5014687;28;45507;-77
2023/03/17 08:28:56;;;;;;;;;11.75;9.75;;;;;14.78;45.06;100214.81;5000697;28;47341;-73
2023/03/17 08:31:22;;;;;;;;;10.00;10.00;;;;;14.83;45.34;100215.75;5017679;28;46137;-73
2023/03/17 08:33:50;;;;;;;;;9.25;9.00;;;;;14.80;44.96;100199.63;5012337;28;45657;-78
2023/03/17 08:36:17;;;;;;;;;12.50;8.75;;;;;14.99;44.39;100218.44;5021368;28;45244;-73
2023/03/17 08:38:44;;;;;;;;;11.75;8.75;;;;;15.03;43.73;100220.22;5024277;28;46167;-68
2023/03/17 08:41:14;;;;;;;;;10.33;6.00;;;;;15.01;43.62;100232.78;5021430;28;45434;-73
2023/03/17 08:43:41;;;;;;;;;9.00;6.67;;;;;15.05;43.24;100219.31;5018103;28;45535;-76
2023/03/17 08:46:12;;;;;;;;;6.67;6.00;;;;;15.10;42.91;100219.34;5023809;28;45389;-76
2023/03/17 08:48:38;;;;;;;;;6.00;5.67;;;;;15.15;43.16;100208.56;5033597;28;45726;-73
2023/03/17 08:51:04;;;;;;;;;7.25;6.25;;;;;15.18;42.88;100187.00;5022542;28;45408;-75
2023/03/17 08:53:33;;;;;;;;;10.75;8.25;;;;;15.23;42.52;100180.75;5027530;28;45387;-76
2023/03/17 08:55:59;;;;;;;;;10.67;7.00;;;;;15.26;42.67;100169.97;5030012;28;45401;-74
2023/03/17 08:58:25;;;;;;;;;6.33;5.00;;;;;15.37;42.16;100196.84;5029513;28;45505;-74
2023/03/17 09:00:52;;;;;;;;;9.67;9.67;;;;;15.34;42.06;100179.81;5025384;28;45463;-73
2023/03/17 09:03:19;;;;;;;;;5.33;5.00;;;;;15.37;41.80;100186.09;5017418;28;45418;-73
2023/03/17 09:05:45;;;;;;;;;7.33;6.00;;;;;15.46;41.95;100199.53;5005932;28;45617;-79
2023/03/17 09:08:11;;;;;;;;;5.67;5.00;;;;;15.52;41.64;100189.66;5021222;28;45522;-66
2023/03/17 09:10:37;;;;;;;;;8.67;7.00;;;;;15.61;42.05;100200.41;5015437;28;45357;-70
2023/03/17 09:13:03;;;;;;;;;11.00;6.00;;;;;15.65;41.55;100194.97;5017535;28;45350;-75
2023/03/17 09:15:30;;;;;;;;;6.00;5.00;;;;;15.72;41.31;100189.56;5016690;28;45364;-69
2023/03/17 09:17:56;;;;;;;;;6.67;6.00;;;;;15.75;41.35;100197.66;5010637;28;46297;-77
2023/03/17 09:20:22;;;;;;;;;7.00;6.00;;;;;15.84;41.59;100181.50;5021742;28;45470;-77
2023/03/17 09:22:50;;;;;;;;;9.33;8.00;;;;;16.01;41.20;100181.41;5004527;28;45272;-80
2023/03/17 09:25:16;;;;;;;;;9.67;8.67;;;;;16.11;40.36;100185.84;5032425;28;45352;-76
2023/03/17 09:27:42;;;;;;;;;7.00;6.67;;;;;16.20;39.95;100169.63;5015148;28;45458;-76
2023/03/17 09:30:09;;;;;;;;;8.33;7.67;;;;;16.30;40.34;100169.56;5008137;28;45433;-77
2023/03/17 09:32:36;;;;;;;;;4.33;4.33;;;;;16.48;39.88;100177.53;5031271;28;45514;-76
2023/03/17 09:35:02;;;;;;;;;6.00;6.00;;;;;16.61;39.39;100178.31;5028510;28;45495;-74
2023/03/17 09:37:28;;;;;;;;;10.00;8.00;;;;;16.71;39.35;100174.66;5026573;28;46011;-79
2023/03/17 09:39:53;;;;;;;;;5.00;4.67;;;;;16.83;38.82;100183.53;5032559;28;45387;-71
2023/03/17 09:42:33;;;;;;;;;7.33;7.33;;;;;16.99;38.63;100174.44;5025361;28;45279;-68
2023/03/17 09:45:22;;;;;;;;;6.33;5.00;;;;;17.00;38.29;100156.47;5021328;28;45304;-76
2023/03/17 09:48:16;;;;;;;;;5.00;5.00;;;;;17.26;37.91;100175.09;5020171;28;46203;-74
2023/03/17 09:50:56;;;;;;;;;8.00;4.67;;;;;17.32;37.47;100145.31;5023551;28;45431;-72
2023/03/17 09:53:26;;;;;;;;;12.00;10.00;;;;;17.66;37.72;100167.44;5019910;28;45446;-67
2023/03/17 09:55:56;;;;;;;;;5.00;5.00;;;;;18.00;36.95;100160.72;5027563;28;45518;-74
2023/03/17 09:58:29;;;;;;;;;5.00;5.00;;;;;18.20;36.82;100134.31;5027452;28;46440;-74
2023/03/17 10:00:54;;;;;;;;;6.33;4.00;;;;;18.37;36.40;100125.06;5016167;28;45456;-75
2023/03/17 10:03:21;;;;;;;;;8.00;5.00;;;;;18.64;36.18;100150.75;5029522;28;45627;-74
2023/03/17 10:05:46;;;;;;;;;6.00;4.67;;;;;18.63;35.78;100143.56;5001239;28;45633;-79
2023/03/17 10:08:27;;;;;;;;;3.00;2.67;;;;;18.53;35.98;100128.44;5012945;28;46873;-80
2023/03/17 10:11:38;;;;;;;;;4.00;4.00;;;;;18.64;36.40;100158.00;5015429;28;45495;-77
2023/03/17 10:14:08;;;;;;;;;7.33;5.00;;;;;18.58;36.38;100159.00;4953566;28;45235;-71
2023/03/17 10:16:41;;;;;;;;;5.33;3.00;;;;;18.61;35.92;100169.78;4961449;28;45115;-72
2023/03/17 10:19:34;;;;;;;;;6.00;4.33;;;;;18.58;35.90;100173.41;4951010;28;47019;-67
2023/03/17 10:22:04;;;;;;;;;7.00;6.00;;;;;18.53;36.19;100179.81;4976582;28;45753;-68
2023/03/17 10:24:31;;;;;;;;;11.00;8.00;;;;;18.50;36.58;100169.03;4976563;28;45538;-72
2023/03/17 10:27:03;;;;;;;;;7.67;7.67;;;;;18.46;36.39;100159.16;4969773;28;45488;-69
2023/03/17 10:29:31;;;;;;;;;4.00;4.00;;;;;18.53;36.22;100179.81;4973506;28;45403;-72
2023/03/17 10:31:56;;;;;;;;;9.33;5.67;;;;;18.52;36.16;100192.44;4980916;28;45636;-73
2023/03/17 10:34:27;;;;;;;;;14.00;9.33;;;;;18.42;36.07;100183.56;4980181;28;45419;-78
2023/03/17 10:37:15;;;;;;;;;8.00;7.33;;;;;18.41;36.39;100172.75;4968849;28;45519;-72
2023/03/17 10:39:43;;;;;;;;;4.33;4.33;;;;;18.30;36.36;100181.06;4973088;28;46283;-74
2023/03/17 10:42:14;;;;;;;;;5.00;4.67;;;;;18.29;36.59;100181.97;4976924;28;46897;-69
2023/03/17 10:44:48;;;;;;;;;5.67;3.00;;;;;18.22;37.17;100183.84;4971481;28;45608;-73
2023/03/17 10:47:23;;;;;;;;;3.33;3.33;;;;;18.19;37.18;100181.19;4977614;28;45457;-72
2023/03/17 10:49:51;;;;;;;;;10.33;6.67;;;;;18.16;37.35;100172.22;4972680;28;45560;-74
2023/03/17 10:52:24;;;;;;;;;7.33;4.00;;;;;18.15;37.12;100174.06;4976171;28;45491;-76
2023/03/17 10:54:52;;;;;;;;;8.00;5.33;;;;;18.11;37.53;100163.28;4974947;28;45285;-72
2023/03/17 10:57:18;;;;;;;;;6.67;4.00;;;;;18.05;37.97;100162.47;4975541;28;45427;-73
2023/03/17 10:59:51;;;;;;;;;5.00;3.00;;;;;18.02;37.85;100151.69;4976186;28;45623;-75
2023/03/17 11:02:19;;;;;;;;;7.00;3.00;;;;;17.99;38.26;100165.25;4976941;28;45344;-68
2023/03/17 11:04:44;;;;;;;;;4.67;3.00;;;;;17.91;38.69;100150.06;4982502;28;45397;-77
2023/03/17 11:07:19;;;;;;;;;3.00;3.00;;;;;17.98;38.74;100170.66;4978214;28;45345;-74
2023/03/17 11:09:50;;;;;;;;;2.00;2.00;;;;;17.81;38.60;100160.94;4979845;28;46454;-75
2023/03/17 11:12:28;;;;;;;;;4.67;3.00;;;;;17.91;38.78;100183.38;4983399;28;45475;-69
2023/03/17 11:15:04;;;;;;;;;11.00;7.33;;;;;17.90;39.01;100180.69;4980770;28;45887;-70
2023/03/17 11:17:53;;;;;;;;;2.00;2.00;;;;;17.89;39.06;100178.91;5016620;28;45634;-71